Home > Products > Valid Products > TAF

000
FTUS45 KREV 301100
TAFRNO
TAF
KRNO 301121Z 3012/3112 VRB03KT P6SM SCT200
     FM302100 20011G20KT P6SM SCT200
     FM310100 28011G20KT P6SM SCT200
     FM310500 28005KT P6SM BKN200=



000
FTUS45 KREV 301100
TAFRNO
TAF
KRNO 301121Z 3012/3112 VRB03KT P6SM SCT200
     FM302100 20011G20KT P6SM SCT200
     FM310100 28011G20KT P6SM SCT200
     FM310500 28005KT P6SM BKN200=



000
FTUS45 KREV 301100
TAFRNO
TAF
KRNO 301121Z 3012/3112 VRB03KT P6SM SCT200
     FM302100 20011G20KT P6SM SCT200
     FM310100 28011G20KT P6SM SCT200
     FM310500 28005KT P6SM BKN200=



000
FTUS45 KREV 301100
TAFRNO
TAF
KRNO 301121Z 3012/3112 VRB03KT P6SM SCT200
     FM302100 20011G20KT P6SM SCT200
     FM310100 28011G20KT P6SM SCT200
     FM310500 28005KT P6SM BKN200=



000
FTUS45 KREV 300500
TAFRNO
TAF
KRNO 300520Z 3006/3106 VRB03KT P6SM SCT200
     FM302100 20011G21KT P6SM SCT200=



000
FTUS45 KREV 300500
TAFRNO
TAF
KRNO 300520Z 3006/3106 VRB03KT P6SM SCT200
     FM302100 20011G21KT P6SM SCT200=



000
FTUS45 KREV 300500
TAFRNO
TAF
KRNO 300520Z 3006/3106 VRB03KT P6SM SCT200
     FM302100 20011G21KT P6SM SCT200=



000
FTUS45 KREV 300500
TAFRNO
TAF
KRNO 300520Z 3006/3106 VRB03KT P6SM SCT200
     FM302100 20011G21KT P6SM SCT200=



000
FTUS45 KREV 300000 RRA
TAFRNO
TAF
KRNO 300002Z 3000/3024 32007KT P6SM FEW080
     FM300500 VRB03KT P6SM SCT200
     FM302100 20011G21KT P6SM SCT200=



000
FTUS45 KREV 300000 RRA
TAFRNO
TAF
KRNO 300002Z 3000/3024 32007KT P6SM FEW080
     FM300500 VRB03KT P6SM SCT200
     FM302100 20011G21KT P6SM SCT200=



000
FTUS45 KREV 291700
TAFRNO
TAF
KRNO 291729Z 2918/3018 VRB04KT P6SM FEW240
     FM292300 32007KT P6SM FEW080
     FM300500 VRB03KT P6SM SCT200=



000
FTUS45 KREV 291700
TAFRNO
TAF
KRNO 291729Z 2918/3018 VRB04KT P6SM FEW240
     FM292300 32007KT P6SM FEW080
     FM300500 VRB03KT P6SM SCT200=



000
FTUS45 KREV 291700
TAFRNO
TAF
KRNO 291729Z 2918/3018 VRB04KT P6SM FEW240
     FM292300 32007KT P6SM FEW080
     FM300500 VRB03KT P6SM SCT200=



000
FTUS45 KREV 291700
TAFRNO
TAF
KRNO 291729Z 2918/3018 VRB04KT P6SM FEW240
     FM292300 32007KT P6SM FEW080
     FM300500 VRB03KT P6SM SCT200=



000
FTUS45 KREV 291100 RRA
TAFRNO
TAF
KRNO 291152Z 2912/3012 VRB04KT P6SM SCT200
     FM300000 32007KT P6SM FEW200
     FM300500 VRB03KT P6SM SCT200=



000
FTUS45 KREV 291100 RRA
TAFRNO
TAF
KRNO 291152Z 2912/3012 VRB04KT P6SM SCT200
     FM300000 32007KT P6SM FEW200
     FM300500 VRB03KT P6SM SCT200=



000
FTUS45 KREV 291100 RRA
TAFRNO
TAF
KRNO 291152Z 2912/3012 VRB04KT P6SM SCT200
     FM300000 32007KT P6SM FEW200
     FM300500 VRB03KT P6SM SCT200=



000
FTUS45 KREV 291100 RRA
TAFRNO
TAF
KRNO 291152Z 2912/3012 VRB04KT P6SM SCT200
     FM300000 32007KT P6SM FEW200
     FM300500 VRB03KT P6SM SCT200=



000
FTUS45 KREV 290500
TAFRNO
TAF
KRNO 290533Z 2906/3006 VRB04KT P6SM SCT220
      TEMPO 2923/3003 34008KT=



000
FTUS45 KREV 290500
TAFRNO
TAF
KRNO 290533Z 2906/3006 VRB04KT P6SM SCT220
      TEMPO 2923/3003 34008KT=



000
FTUS45 KREV 290500
TAFRNO
TAF
KRNO 290533Z 2906/3006 VRB04KT P6SM SCT220
      TEMPO 2923/3003 34008KT=



000
FTUS45 KREV 290500
TAFRNO
TAF
KRNO 290533Z 2906/3006 VRB04KT P6SM SCT220
      TEMPO 2923/3003 34008KT=



000
FTUS45 KREV 282300
TAFRNO
TAF
KRNO 282327Z 2900/2924 02009KT P6SM FEW120 SCT180
     FM290400 VRB04KT P6SM SCT200=



000
FTUS45 KREV 282300
TAFRNO
TAF
KRNO 282327Z 2900/2924 02009KT P6SM FEW120 SCT180
     FM290400 VRB04KT P6SM SCT200=



000
FTUS45 KREV 281700
TAFRNO
TAF
KRNO 281720Z 2818/2918 VRB04KT P6SM SCT200
     FM282100 03009KT P6SM FEW120 SCT200
     FM290400 VRB04KT P6SM SCT200=



000
FTUS45 KREV 281700
TAFRNO
TAF
KRNO 281720Z 2818/2918 VRB04KT P6SM SCT200
     FM282100 03009KT P6SM FEW120 SCT200
     FM290400 VRB04KT P6SM SCT200=



000
FTUS45 KREV 281700
TAFRNO
TAF
KRNO 281720Z 2818/2918 VRB04KT P6SM SCT200
     FM282100 03009KT P6SM FEW120 SCT200
     FM290400 VRB04KT P6SM SCT200=



000
FTUS45 KREV 281100
TAFRNO
TAF
KRNO 281125Z 2812/2912 29006KT P6SM SCT200
     FM281600 VRB04KT P6SM SCT200
     FM282100 03009KT P6SM FEW120 SCT200
     FM290400 VRB04KT P6SM SCT200=



000
FTUS45 KREV 281100
TAFRNO
TAF
KRNO 281125Z 2812/2912 29006KT P6SM SCT200
     FM281600 VRB04KT P6SM SCT200
     FM282100 03009KT P6SM FEW120 SCT200
     FM290400 VRB04KT P6SM SCT200=



000
FTUS45 KREV 280500
TAFRNO
TAF
KRNO 280520Z 2806/2906 29010KT P6SM SKC
     FM280800 VRB04KT P6SM SKC
     FM282100 03009KT P6SM SKC=



000
FTUS45 KREV 280500
TAFRNO
TAF
KRNO 280520Z 2806/2906 29010KT P6SM SKC
     FM280800 VRB04KT P6SM SKC
     FM282100 03009KT P6SM SKC=



000
FTUS45 KREV 280500
TAFRNO
TAF
KRNO 280520Z 2806/2906 29010KT P6SM SKC
     FM280800 VRB04KT P6SM SKC
     FM282100 03009KT P6SM SKC=



000
FTUS45 KREV 280500
TAFRNO
TAF
KRNO 280520Z 2806/2906 29010KT P6SM SKC
     FM280800 VRB04KT P6SM SKC
     FM282100 03009KT P6SM SKC=



000
FTUS45 KREV 272300
TAFRNO
TAF
KRNO 272320Z 2800/2824 24012G25KT P6SM SKC
     FM280400 29011G20KT P6SM SCT200
     FM280700 VRB04KT P6SM SCT200=



000
FTUS45 KREV 272300
TAFRNO
TAF
KRNO 272320Z 2800/2824 24012G25KT P6SM SKC
     FM280400 29011G20KT P6SM SCT200
     FM280700 VRB04KT P6SM SCT200=



000
FTUS45 KREV 272300
TAFRNO
TAF
KRNO 272320Z 2800/2824 24012G25KT P6SM SKC
     FM280400 29011G20KT P6SM SCT200
     FM280700 VRB04KT P6SM SCT200=



000
FTUS45 KREV 272300
TAFRNO
TAF
KRNO 272320Z 2800/2824 24012G25KT P6SM SKC
     FM280400 29011G20KT P6SM SCT200
     FM280700 VRB04KT P6SM SCT200=



000
FTUS45 KREV 271700
TAFRNO
TAF
KRNO 271720Z 2718/2818 VRB04KT P6SM SKC
     FM272000 22012G25KT P6SM SKC
     FM280400 29011G20KT P6SM SCT200
     FM280700 VRB04KT P6SM SCT200=



    US Dept of Commerce
    National Oceanic and Atmospheric Administration
    National Weather Service
    1325 East West Highway
    Silver Spring, MD 20910
    Page Author: NWS Internet Services Team
Disclaimer
Information Quality
Credits
Glossary
Privacy Policy
Freedom of Information Act (FOIA)
About Us
Career Opportunities